createdAt,value
2023-02-11T00:01:36.170Z,-0.19
2023-02-11T00:04:06.554Z,-0.26
2023-02-11T00:06:36.461Z,-0.27
2023-02-11T00:09:06.006Z,-0.30
2023-02-11T00:11:35.126Z,-0.32
2023-02-11T00:14:07.888Z,-0.36
2023-02-11T00:16:36.524Z,-0.38
2023-02-11T00:19:06.454Z,-0.38
2023-02-11T00:21:35.957Z,-0.44
2023-02-11T00:24:04.805Z,-0.44
2023-02-11T00:26:36.298Z,-0.51
2023-02-11T00:29:06.526Z,-0.57
2023-02-11T00:31:35.882Z,-0.63
2023-02-11T00:34:06.925Z,-0.69
2023-02-11T00:36:35.303Z,-0.73
2023-02-11T00:39:03.863Z,-0.83
2023-02-11T00:41:32.688Z,-0.92
2023-02-11T00:44:01.093Z,-1.00
2023-02-11T00:46:31.087Z,-1.04
2023-02-11T00:48:59.577Z,-1.05
2023-02-11T00:51:29.485Z,-1.10
2023-02-11T00:53:58.020Z,-1.11
2023-02-11T00:56:26.663Z,-1.11
2023-02-11T00:58:55.096Z,-1.09
2023-02-11T01:01:24.001Z,-1.12
2023-02-11T01:03:53.967Z,-1.12
2023-02-11T01:06:25.037Z,-1.05
2023-02-11T01:08:53.440Z,-0.99
2023-02-11T01:11:22.809Z,-0.99
2023-02-11T01:13:52.224Z,-1.06
2023-02-11T01:16:22.051Z,-1.07
2023-02-11T01:18:50.496Z,-1.20
2023-02-11T01:21:20.766Z,-1.30
2023-02-11T01:23:49.305Z,-1.30
2023-02-11T01:26:17.677Z,-1.37
2023-02-11T01:28:46.327Z,-1.41
2023-02-11T01:31:14.847Z,-1.46
2023-02-11T01:33:43.491Z,-1.54
2023-02-11T01:36:13.763Z,-1.54
2023-02-11T01:38:44.628Z,-1.60
2023-02-11T01:41:15.675Z,-1.54
2023-02-11T01:43:47.537Z,-1.57
2023-02-11T01:46:29.891Z,-1.62
2023-02-11T01:49:04.319Z,-1.57
2023-02-11T01:51:38.194Z,-1.60
2023-02-11T01:54:28.285Z,-1.58
2023-02-11T01:57:17.598Z,-1.60
2023-02-11T01:59:56.487Z,-1.61
2023-02-11T02:02:29.417Z,-1.60
2023-02-11T02:05:04.690Z,-1.58
2023-02-11T02:07:39.970Z,-1.57
2023-02-11T02:10:16.627Z,-1.52
2023-02-11T02:12:44.922Z,-1.52
2023-02-11T02:15:29.032Z,-1.54
2023-02-11T02:18:17.020Z,-1.57
2023-02-11T02:21:47.313Z,-1.55
2023-02-11T02:24:57.941Z,-1.53
2023-02-11T02:27:39.316Z,-1.53
2023-02-11T02:30:41.219Z,-1.55
2023-02-11T02:33:30.440Z,-1.52
2023-02-11T02:36:10.839Z,-1.43
2023-02-11T02:38:46.479Z,-1.40
2023-02-11T02:41:18.438Z,-1.36
2023-02-11T02:43:50.406Z,-1.40
2023-02-11T02:46:22.079Z,-1.35
2023-02-11T02:48:54.343Z,-1.30
2023-02-11T02:51:51.298Z,-1.36
2023-02-11T02:55:08.873Z,-1.53
2023-02-11T02:57:51.973Z,-1.62
2023-02-11T03:00:30.593Z,-1.66
2023-02-11T03:03:19.031Z,-1.77
2023-02-11T03:05:58.433Z,-1.77
2023-02-11T03:08:34.384Z,-1.81
2023-02-11T03:11:04.493Z,-1.85
2023-02-11T03:13:36.109Z,-1.87
2023-02-11T03:16:11.456Z,-1.87
2023-02-11T03:18:45.314Z,-1.92
2023-02-11T03:21:18.124Z,-1.93
2023-02-11T03:23:52.588Z,-1.94
2023-02-11T03:26:27.445Z,-1.91
2023-02-11T03:29:04.297Z,-1.92
2023-02-11T03:31:38.540Z,-1.95
2023-02-11T03:34:12.646Z,-1.93
2023-02-11T03:36:47.525Z,-1.96
2023-02-11T03:39:22.312Z,-1.94
2023-02-11T03:41:53.011Z,-1.94
2023-02-11T03:44:24.266Z,-2.01
2023-02-11T03:46:55.201Z,-1.98
2023-02-11T03:49:26.234Z,-1.96
2023-02-11T03:51:57.311Z,-1.99
2023-02-11T03:54:30.839Z,-1.97
2023-02-11T03:57:02.481Z,-1.94
2023-02-11T03:59:30.930Z,-1.96
2023-02-11T04:01:59.585Z,-1.96
2023-02-11T04:04:27.971Z,-1.95
2023-02-11T04:06:57.751Z,-1.91
2023-02-11T04:09:26.009Z,-1.90
2023-02-11T04:11:54.239Z,-1.90
2023-02-11T04:14:22.431Z,-1.87
2023-02-11T04:16:50.695Z,-1.83
2023-02-11T04:19:18.955Z,-1.81
2023-02-11T04:21:47.954Z,-1.79
2023-02-11T04:24:17.566Z,-1.75
2023-02-11T04:26:45.831Z,-1.68
2023-02-11T04:29:14.174Z,-1.64
2023-02-11T04:31:42.459Z,-1.58
2023-02-11T04:34:10.816Z,-1.54
2023-02-11T04:36:39.279Z,-1.52
2023-02-11T04:39:08.152Z,-1.51
2023-02-11T04:41:37.881Z,-1.49
2023-02-11T04:44:06.527Z,-1.49
2023-02-11T04:46:34.781Z,-1.49
2023-02-11T04:49:03.430Z,-1.52
2023-02-11T04:51:32.574Z,-1.55
2023-02-11T04:54:00.790Z,-1.58
2023-02-11T04:56:29.204Z,-1.59
2023-02-11T04:58:59.026Z,-1.65
2023-02-11T05:01:27.849Z,-1.60
2023-02-11T05:03:57.152Z,-1.56
2023-02-11T05:06:25.640Z,-1.57
2023-02-11T05:08:53.964Z,-1.53
2023-02-11T05:11:25.869Z,-1.51
2023-02-11T05:13:54.353Z,-1.50
2023-02-11T05:16:23.995Z,-1.53
2023-02-11T05:18:53.636Z,-1.55
2023-02-11T05:21:22.347Z,-1.57
2023-02-11T05:23:50.695Z,-1.60
2023-02-11T05:26:19.609Z,-1.61
2023-02-11T05:28:48.027Z,-1.63
2023-02-11T05:31:16.860Z,-1.60
2023-02-11T05:33:46.654Z,-1.59
2023-02-11T05:36:15.903Z,-1.59
2023-02-11T05:38:44.372Z,-1.57
2023-02-11T05:41:14.673Z,-1.58
2023-02-11T05:43:43.307Z,-1.54
2023-02-11T05:46:11.706Z,-1.52
2023-02-11T05:48:39.969Z,-1.53
2023-02-11T05:51:09.634Z,-1.48
2023-02-11T05:53:38.019Z,-1.49
2023-02-11T05:56:07.576Z,-1.42
2023-02-11T05:58:35.772Z,-1.44
2023-02-11T06:01:04.184Z,-1.43
2023-02-11T06:03:32.456Z,-1.42
2023-02-11T06:06:00.709Z,-1.39
2023-02-11T06:08:30.433Z,-1.36
2023-02-11T06:10:58.803Z,-1.35
2023-02-11T06:13:27.043Z,-1.34
2023-02-11T06:15:59.498Z,-1.33
2023-02-11T06:18:27.943Z,-1.31
2023-02-11T06:20:56.432Z,-1.27
2023-02-11T06:23:25.021Z,-1.25
2023-02-11T06:25:54.602Z,-1.19
2023-02-11T06:28:23.030Z,-1.22
2023-02-11T06:30:51.368Z,-1.19
2023-02-11T06:33:19.927Z,-1.19
2023-02-11T06:35:48.412Z,-1.17
2023-02-11T06:38:16.842Z,-1.19
2023-02-11T06:40:49.418Z,-1.18
2023-02-11T06:43:19.263Z,-1.17
2023-02-11T06:45:54.892Z,-1.16
2023-02-11T06:48:24.537Z,-1.16
2023-02-11T06:50:52.916Z,-1.15
2023-02-11T06:53:21.312Z,-1.16
2023-02-11T06:55:50.286Z,-1.16
2023-02-11T06:58:20.205Z,-1.15
2023-02-11T07:00:48.540Z,-1.14
2023-02-11T07:03:16.948Z,-1.17
2023-02-11T07:05:45.245Z,-1.16
2023-02-11T07:08:14.228Z,-1.16
2023-02-11T07:10:42.740Z,-1.13
2023-02-11T07:13:11.088Z,-1.12
2023-02-11T07:15:41.872Z,-1.12
2023-02-11T07:18:11.097Z,-1.08
2023-02-11T07:20:40.479Z,-1.07
2023-02-11T07:23:08.960Z,-1.06
2023-02-11T07:25:37.764Z,-1.05
2023-02-11T07:28:06.524Z,-1.01
2023-02-11T07:30:34.787Z,-0.96
2023-02-11T07:33:04.574Z,-0.93
2023-02-11T07:35:33.065Z,-0.88
2023-02-11T07:38:01.358Z,-0.83
2023-02-11T07:40:31.536Z,-0.81
2023-02-11T07:43:01.714Z,-0.78
2023-02-11T07:45:30.066Z,-0.77
2023-02-11T07:47:58.430Z,-0.68
2023-02-11T07:50:28.156Z,-0.64
2023-02-11T07:52:56.470Z,-0.64
2023-02-11T07:55:25.022Z,-0.61
2023-02-11T07:57:53.471Z,-0.57
2023-02-11T08:00:22.084Z,-0.52
2023-02-11T08:02:50.417Z,-0.50
2023-02-11T08:05:19.016Z,-0.45
2023-02-11T08:07:49.352Z,-0.45
2023-02-11T08:10:17.887Z,-0.39
2023-02-11T08:12:46.150Z,-0.33
2023-02-11T08:15:14.995Z,-0.32
2023-02-11T08:17:43.344Z,-0.31
2023-02-11T08:20:12.623Z,-0.29
2023-02-11T08:22:40.949Z,-0.22
2023-02-11T08:25:10.765Z,-0.16
2023-02-11T08:27:39.049Z,-0.13
2023-02-11T08:30:08.919Z,-0.11
2023-02-11T08:32:37.397Z,-0.07
2023-02-11T08:35:07.764Z,-0.04
2023-02-11T08:37:36.150Z,-0.02
2023-02-11T08:40:04.852Z,0.01
2023-02-11T08:42:34.613Z,0.06
2023-02-11T08:45:03.398Z,0.13
2023-02-11T08:47:31.842Z,0.26
2023-02-11T08:50:00.102Z,0.34
2023-02-11T08:52:28.618Z,0.43
2023-02-11T08:54:57.248Z,0.51
2023-02-11T08:57:25.566Z,0.60
2023-02-11T08:59:55.253Z,0.70
2023-02-11T09:02:23.543Z,0.75
2023-02-11T09:04:51.915Z,0.79
2023-02-11T09:07:20.357Z,0.83
2023-02-11T09:09:48.734Z,0.88
2023-02-11T09:12:16.992Z,0.96
2023-02-11T09:14:45.227Z,0.99
2023-02-11T09:17:14.850Z,1.04
2023-02-11T09:19:43.116Z,1.07
2023-02-11T09:22:11.612Z,1.13
2023-02-11T09:24:39.941Z,1.17
2023-02-11T09:27:08.665Z,1.28
2023-02-11T09:29:37.080Z,1.31
2023-02-11T09:32:09.687Z,1.36
2023-02-11T09:34:39.887Z,1.43
2023-02-11T09:37:08.580Z,1.49
2023-02-11T09:39:37.273Z,1.52
2023-02-11T09:42:40.347Z,1.60
2023-02-11T09:45:17.516Z,1.63
2023-02-11T09:47:54.163Z,1.68
2023-02-11T09:50:31.355Z,1.69
2023-02-11T09:53:04.392Z,1.74
2023-02-11T09:55:37.765Z,1.81
2023-02-11T09:58:13.628Z,1.88
2023-02-11T10:00:48.592Z,1.94
2023-02-11T10:03:42.449Z,1.99
2023-02-11T10:06:29.948Z,2.03
2023-02-11T10:09:13.222Z,2.09
2023-02-11T10:11:52.972Z,2.20
2023-02-11T10:14:43.532Z,2.32
2023-02-11T10:17:23.242Z,2.37
2023-02-11T10:20:09.432Z,2.42
2023-02-11T10:22:45.390Z,2.50
2023-02-11T10:25:22.976Z,2.55
2023-02-11T10:27:53.092Z,2.56
2023-02-11T10:30:29.433Z,2.61
2023-02-11T10:33:04.335Z,2.73
2023-02-11T10:35:33.921Z,2.79
2023-02-11T10:38:03.649Z,2.87
2023-02-11T10:40:33.695Z,2.95
2023-02-11T10:43:05.537Z,3.06
2023-02-11T10:45:38.019Z,3.17
2023-02-11T10:48:38.016Z,3.28
2023-02-11T10:51:19.206Z,3.40
2023-02-11T10:53:51.498Z,3.48
2023-02-11T10:56:27.657Z,3.54
2023-02-11T10:59:00.659Z,3.60
2023-02-11T11:01:46.882Z,3.70
2023-02-11T11:04:38.729Z,3.79
2023-02-11T11:07:29.608Z,3.82
2023-02-11T11:10:03.557Z,3.85
2023-02-11T11:12:42.207Z,4.02
2023-02-11T11:15:22.003Z,4.11
2023-02-11T11:17:51.023Z,4.13
2023-02-11T11:20:29.086Z,4.09
2023-02-11T11:23:16.194Z,4.11
2023-02-11T11:26:01.421Z,4.17
2023-02-11T11:28:31.327Z,4.24
2023-02-11T11:31:01.178Z,4.22
2023-02-11T11:33:32.528Z,4.34
2023-02-11T11:36:05.785Z,4.41
2023-02-11T11:38:36.467Z,4.59
2023-02-11T11:41:25.272Z,4.95
2023-02-11T11:43:59.322Z,5.28
2023-02-11T11:46:32.163Z,5.53
2023-02-11T11:49:13.439Z,5.86
2023-02-11T11:51:45.125Z,6.07
2023-02-11T11:54:15.094Z,6.26
2023-02-11T11:56:53.421Z,6.54
2023-02-11T11:59:22.959Z,6.66
2023-02-11T12:02:21.652Z,6.71
2023-02-11T12:05:04.916Z,6.67
2023-02-11T12:07:54.622Z,6.74
2023-02-11T12:10:58.510Z,6.75
2023-02-11T12:13:44.944Z,6.93
2023-02-11T12:16:26.918Z,7.09
2023-02-11T12:19:31.578Z,7.47
2023-02-11T12:22:26.535Z,7.80
2023-02-11T12:25:18.030Z,7.86
2023-02-11T12:27:57.240Z,7.85
2023-02-11T12:30:47.282Z,7.82
2023-02-11T12:33:32.404Z,7.90
2023-02-11T12:36:08.896Z,7.97
2023-02-11T12:39:03.853Z,7.94
2023-02-11T12:42:14.309Z,8.03
2023-02-11T12:44:59.002Z,7.95
2023-02-11T12:47:38.849Z,7.89
2023-02-11T12:50:19.990Z,7.86
2023-02-11T12:53:11.177Z,7.97
2023-02-11T12:55:45.266Z,8.00
2023-02-11T12:58:20.124Z,8.05
2023-02-11T13:00:52.077Z,8.06
2023-02-11T13:03:27.245Z,8.08
2023-02-11T13:05:58.426Z,8.03
2023-02-11T13:08:32.523Z,8.01
2023-02-11T13:11:07.891Z,8.08
2023-02-11T13:13:47.828Z,8.08
2023-02-11T13:16:34.448Z,8.07
2023-02-11T13:19:18.438Z,8.09
2023-02-11T13:22:03.705Z,8.23
2023-02-11T13:24:44.275Z,8.23
2023-02-11T13:27:26.263Z,8.32
2023-02-11T13:30:27.451Z,8.33
2023-02-11T13:33:21.409Z,8.62
2023-02-11T13:36:17.238Z,8.87
2023-02-11T13:38:54.548Z,9.15
2023-02-11T13:41:32.462Z,9.45
2023-02-11T13:44:22.051Z,9.79
2023-02-11T13:47:02.761Z,10.24
2023-02-11T13:49:36.407Z,10.40
2023-02-11T13:52:17.948Z,10.48
2023-02-11T13:54:51.933Z,10.76
2023-02-11T13:57:31.693Z,11.14
2023-02-11T14:00:02.168Z,11.45
2023-02-11T14:02:53.057Z,11.64
2023-02-11T14:05:48.864Z,11.85
2023-02-11T14:08:42.992Z,11.94
2023-02-11T14:11:49.192Z,12.26
2023-02-11T14:14:25.078Z,12.32
2023-02-11T14:17:34.452Z,12.35
2023-02-11T14:20:06.419Z,12.32
2023-02-11T14:22:46.985Z,12.36
2023-02-11T14:25:23.872Z,12.23
2023-02-11T14:27:57.914Z,12.46
2023-02-11T14:30:45.999Z,12.66
2023-02-11T14:34:05.049Z,12.74
2023-02-11T14:37:02.631Z,12.73
2023-02-11T14:39:52.815Z,12.58
2023-02-11T14:42:26.965Z,12.51
2023-02-11T14:44:58.069Z,12.85
2023-02-11T14:47:35.438Z,12.83
2023-02-11T14:50:03.913Z,12.96
2023-02-11T14:52:35.318Z,12.58
2023-02-11T14:55:17.985Z,12.24
2023-02-11T14:57:49.526Z,12.25
2023-02-11T15:00:21.716Z,12.28
2023-02-11T15:02:50.299Z,12.33
2023-02-11T15:05:22.814Z,12.56
2023-02-11T15:07:54.397Z,12.31
2023-02-11T15:10:32.784Z,12.26
2023-02-11T15:13:04.104Z,12.24
2023-02-11T15:15:35.809Z,12.30
2023-02-11T15:18:05.774Z,12.06
2023-02-11T15:20:35.821Z,11.99
2023-02-11T15:23:09.234Z,11.80
2023-02-11T15:25:45.710Z,11.75
2023-02-11T15:28:26.920Z,11.79
2023-02-11T15:31:01.369Z,11.85
2023-02-11T15:33:32.038Z,11.78
2023-02-11T15:36:01.863Z,11.90
2023-02-11T15:38:30.882Z,11.95
2023-02-11T15:41:02.007Z,12.02
2023-02-11T15:43:46.730Z,11.97
2023-02-11T15:46:18.512Z,11.95
2023-02-11T15:48:50.008Z,11.82
2023-02-11T15:51:22.130Z,11.69
2023-02-11T15:53:56.893Z,11.49
2023-02-11T15:56:29.763Z,11.27
2023-02-11T15:59:02.170Z,11.13
2023-02-11T16:01:34.069Z,11.07
2023-02-11T16:04:03.986Z,10.98
2023-02-11T16:06:38.953Z,10.89
2023-02-11T16:09:24.580Z,10.82
2023-02-11T16:11:58.222Z,10.70
2023-02-11T16:14:34.291Z,10.64
2023-02-11T16:17:06.791Z,10.51
2023-02-11T16:19:36.361Z,10.43
2023-02-11T16:22:11.398Z,10.36
2023-02-11T16:24:40.600Z,10.35
2023-02-11T16:27:22.620Z,10.24
2023-02-11T16:29:55.567Z,10.17
2023-02-11T16:32:26.634Z,10.17
2023-02-11T16:34:57.876Z,10.05
2023-02-11T16:37:26.465Z,9.97
2023-02-11T16:39:55.347Z,9.95
2023-02-11T16:42:24.427Z,9.87
2023-02-11T16:44:54.102Z,9.82
2023-02-11T16:47:28.314Z,9.78
2023-02-11T16:49:57.415Z,9.73
2023-02-11T16:52:26.669Z,9.68
2023-02-11T16:54:55.064Z,9.69
2023-02-11T16:57:29.584Z,9.72
2023-02-11T17:00:00.110Z,9.69
2023-02-11T17:02:31.821Z,9.66
2023-02-11T17:05:03.718Z,9.63
2023-02-11T17:07:32.596Z,9.55
2023-02-11T17:10:01.019Z,9.47
2023-02-11T17:12:29.341Z,9.44
2023-02-11T17:14:59.107Z,9.40
2023-02-11T17:17:29.366Z,9.36
2023-02-11T17:19:58.165Z,9.32
2023-02-11T17:22:26.388Z,9.28
2023-02-11T17:24:55.917Z,9.21
2023-02-11T17:27:24.303Z,9.26
2023-02-11T17:29:52.588Z,9.20
2023-02-11T17:32:22.374Z,9.20
2023-02-11T17:34:50.739Z,9.25
2023-02-11T17:37:18.990Z,9.18
2023-02-11T17:39:47.236Z,9.10
2023-02-11T17:42:15.808Z,9.02
2023-02-11T17:44:45.316Z,8.95
2023-02-11T17:47:13.854Z,8.86
2023-02-11T17:49:43.901Z,8.81
2023-02-11T17:52:12.164Z,8.69
2023-02-11T17:54:40.769Z,8.72
2023-02-11T17:57:09.052Z,8.67
2023-02-11T17:59:37.482Z,8.63
2023-02-11T18:02:06.996Z,8.61
2023-02-11T18:04:35.940Z,8.57
2023-02-11T18:07:05.636Z,8.54
2023-02-11T18:09:38.994Z,8.53
2023-02-11T18:12:08.554Z,8.52
2023-02-11T18:14:36.798Z,8.49
2023-02-11T18:17:05.255Z,8.46
2023-02-11T18:19:35.884Z,8.45
2023-02-11T18:22:05.710Z,8.43
2023-02-11T18:24:34.059Z,8.41
2023-02-11T18:27:02.612Z,8.44
2023-02-11T18:29:31.172Z,8.37
2023-02-11T18:31:59.869Z,8.37
2023-02-11T18:34:28.607Z,8.34
2023-02-11T18:36:57.044Z,8.31
2023-02-11T18:39:26.791Z,8.31
2023-02-11T18:41:58.846Z,8.27
2023-02-11T18:44:28.087Z,8.21
2023-02-11T18:46:56.550Z,8.18
2023-02-11T18:49:25.274Z,8.17
2023-02-11T18:51:54.063Z,8.15
2023-02-11T18:54:22.512Z,8.10
2023-02-11T18:56:52.337Z,8.08
2023-02-11T18:59:20.830Z,8.04
2023-02-11T19:01:49.307Z,8.03
2023-02-11T19:04:20.001Z,8.00
2023-02-11T19:06:50.461Z,7.98
2023-02-11T19:09:20.688Z,7.97
2023-02-11T19:11:50.992Z,7.97
2023-02-11T19:14:23.193Z,7.95
2023-02-11T19:16:54.230Z,7.90
2023-02-11T19:19:24.548Z,7.95
2023-02-11T19:21:52.848Z,7.98
2023-02-11T19:24:21.429Z,7.95
2023-02-11T19:26:53.546Z,7.90
2023-02-11T19:29:21.998Z,7.90
2023-02-11T19:31:50.934Z,7.85
2023-02-11T19:34:21.409Z,7.80
2023-02-11T19:36:50.992Z,7.79
2023-02-11T19:39:19.417Z,7.76
2023-02-11T19:41:47.747Z,7.75
2023-02-11T19:44:17.404Z,7.75
2023-02-11T19:46:48.345Z,7.73
2023-02-11T19:49:22.951Z,7.74
2023-02-11T19:51:52.111Z,7.69
2023-02-11T19:54:21.231Z,7.69
2023-02-11T19:56:49.924Z,7.67
2023-02-11T19:59:20.814Z,7.57
2023-02-11T20:01:49.376Z,7.51
2023-02-11T20:04:18.474Z,7.43
2023-02-11T20:06:48.228Z,7.42
2023-02-11T20:09:16.646Z,7.42
2023-02-11T20:11:45.146Z,7.35
2023-02-11T20:14:15.708Z,7.39
2023-02-11T20:16:49.556Z,7.38
2023-02-11T20:19:21.217Z,7.35
2023-02-11T20:21:55.549Z,7.35
2023-02-11T20:24:25.747Z,7.37
2023-02-11T20:26:56.057Z,7.30
2023-02-11T20:29:25.325Z,7.26
2023-02-11T20:31:55.708Z,7.23
2023-02-11T20:34:25.021Z,7.22
2023-02-11T20:36:54.093Z,7.22
2023-02-11T20:39:24.253Z,7.17
2023-02-11T20:41:54.401Z,7.16
2023-02-11T20:44:23.578Z,7.15
2023-02-11T20:46:54.908Z,7.15
2023-02-11T20:49:25.144Z,7.14
2023-02-11T20:51:54.354Z,7.14
2023-02-11T20:54:24.357Z,7.13
2023-02-11T20:56:53.898Z,7.09
2023-02-11T20:59:22.825Z,7.07
2023-02-11T21:01:56.497Z,7.03
2023-02-11T21:04:28.151Z,6.95
2023-02-11T21:07:00.017Z,6.95
2023-02-11T21:09:31.202Z,7.00
2023-02-11T21:12:00.064Z,7.05
2023-02-11T21:14:29.768Z,7.13
2023-02-11T21:16:59.733Z,7.09
2023-02-11T21:19:28.144Z,7.16
2023-02-11T21:21:57.352Z,7.10
2023-02-11T21:24:25.864Z,7.06
2023-02-11T21:26:54.649Z,7.13
2023-02-11T21:29:23.180Z,7.04
2023-02-11T21:31:51.554Z,7.00
2023-02-11T21:34:21.408Z,7.00
2023-02-11T21:36:51.108Z,6.99
2023-02-11T21:39:20.340Z,6.96
2023-02-11T21:41:48.917Z,6.94
2023-02-11T21:44:17.859Z,6.95
2023-02-11T21:46:46.694Z,6.98
2023-02-11T21:49:15.140Z,6.93
2023-02-11T21:51:45.094Z,6.88
2023-02-11T21:54:13.511Z,6.89
2023-02-11T21:56:41.791Z,6.86
2023-02-11T21:59:13.792Z,6.87
2023-02-11T22:01:42.333Z,6.86
2023-02-11T22:04:11.144Z,6.85
2023-02-11T22:06:40.355Z,6.86
2023-02-11T22:09:11.697Z,6.85
2023-02-11T22:11:39.972Z,6.84
2023-02-11T22:14:08.562Z,6.83
2023-02-11T22:16:36.888Z,6.84
2023-02-11T22:19:07.589Z,6.86
2023-02-11T22:21:36.026Z,6.84
2023-02-11T22:24:04.569Z,6.80
2023-02-11T22:26:34.463Z,6.77
2023-02-11T22:29:02.824Z,6.75
2023-02-11T22:31:34.065Z,6.74
2023-02-11T22:34:04.356Z,6.75
2023-02-11T22:36:35.595Z,6.71
2023-02-11T22:39:05.916Z,6.69
2023-02-11T22:41:38.314Z,6.70
2023-02-11T22:44:06.696Z,6.70
2023-02-11T22:46:35.261Z,6.68
2023-02-11T22:49:03.887Z,6.65
2023-02-11T22:51:33.302Z,6.65
2023-02-11T22:54:04.770Z,6.66
2023-02-11T22:56:36.222Z,6.64
2023-02-11T22:59:09.594Z,6.61
2023-02-11T23:01:38.538Z,6.63
2023-02-11T23:04:09.132Z,6.65
2023-02-11T23:06:37.470Z,6.63
2023-02-11T23:09:06.267Z,6.61
2023-02-11T23:11:36.744Z,6.58
2023-02-11T23:14:05.623Z,6.57
2023-02-11T23:16:35.637Z,6.57
2023-02-11T23:19:06.844Z,6.53
2023-02-11T23:21:38.007Z,6.54
2023-02-11T23:24:09.732Z,6.54
2023-02-11T23:26:40.920Z,6.57
2023-02-11T23:29:10.045Z,6.54
2023-02-11T23:31:41.012Z,6.53
2023-02-11T23:34:10.275Z,6.49
2023-02-11T23:36:38.611Z,6.47
2023-02-11T23:39:07.082Z,6.45
2023-02-11T23:41:35.702Z,6.45
2023-02-11T23:44:05.688Z,6.42
2023-02-11T23:46:34.113Z,6.38
2023-02-11T23:49:02.433Z,6.35
2023-02-11T23:51:31.256Z,6.32
2023-02-11T23:53:59.527Z,6.26
2023-02-11T23:56:29.229Z,6.23
2023-02-11T23:58:59.561Z,6.21
